sensor_id;sensor_type;location;lat;lon;timestamp;pressure;altitude;pressure_sealevel;temperature;humidity
7018;BME280;3549;42.162;24.726;2022-07-03T00:01:40;99548.75;;;24.04;70.89
7018;BME280;3549;42.162;24.726;2022-07-03T00:04:06;99402.84;;;23.26;70.78
7018;BME280;3549;42.162;24.726;2022-07-03T00:06:32;99470.81;;;23.43;72.40
7018;BME280;3549;42.162;24.726;2022-07-03T00:08:59;99613.31;;;24.25;74.01
7018;BME280;3549;42.162;24.726;2022-07-03T00:11:25;99582.38;;;24.08;74.12
7018;BME280;3549;42.162;24.726;2022-07-03T00:13:50;99072.19;;;20.87;75.39
7018;BME280;3549;42.162;24.726;2022-07-03T00:16:16;99345.53;;;22.71;75.02
7018;BME280;3549;42.162;24.726;2022-07-03T00:18:42;99294.91;;;22.46;74.22
7018;BME280;3549;42.162;24.726;2022-07-03T00:21:09;99603.72;;;24.35;73.90
7018;BME280;3549;42.162;24.726;2022-07-03T00:24:00;99560.09;;;23.86;75.71
7018;BME280;3549;42.162;24.726;2022-07-03T00:26:29;99526.75;;;23.48;77.59
7018;BME280;3549;42.162;24.726;2022-07-03T00:28:57;99514.91;;;23.04;81.44
7018;BME280;3549;42.162;24.726;2022-07-03T00:31:25;99289.25;;;21.42;82.43
7018;BME280;3549;42.162;24.726;2022-07-03T00:33:54;99245.47;;;21.16;83.52
7018;BME280;3549;42.162;24.726;2022-07-03T00:36:20;99053.41;;;20.07;83.54
7018;BME280;3549;42.162;24.726;2022-07-03T00:38:46;99491.69;;;22.98;82.55
7018;BME280;3549;42.162;24.726;2022-07-03T00:41:25;99472.75;;;22.99;81.17
7018;BME280;3549;42.162;24.726;2022-07-03T00:43:51;99360.31;;;22.31;81.05
7018;BME280;3549;42.162;24.726;2022-07-03T00:46:17;99484.75;;;23.09;80.42
7018;BME280;3549;42.162;24.726;2022-07-03T00:48:46;99350.06;;;22.13;81.37
7018;BME280;3549;42.162;24.726;2022-07-03T00:51:14;99497.84;;;22.65;82.89
7018;BME280;3549;42.162;24.726;2022-07-03T00:53:41;99276.31;;;21.48;82.51
7018;BME280;3549;42.162;24.726;2022-07-03T00:56:08;99215.44;;;20.84;83.73
7018;BME280;3549;42.162;24.726;2022-07-03T00:58:37;99319.25;;;21.55;84.42
7018;BME280;3549;42.162;24.726;2022-07-03T01:01:03;99299.53;;;21.36;85.35
7018;BME280;3549;42.162;24.726;2022-07-03T01:03:32;99460.09;;;22.17;85.68
7018;BME280;3549;42.162;24.726;2022-07-03T01:06:03;99383.63;;;21.81;86.02
7018;BME280;3549;42.162;24.726;2022-07-03T01:08:45;99126.28;;;20.34;85.15
7018;BME280;3549;42.162;24.726;2022-07-03T01:14:15;99554.56;;;22.87;86.37
7018;BME280;3549;42.162;24.726;2022-07-03T01:16:59;99548.53;;;22.88;86.35
7018;BME280;3549;42.162;24.726;2022-07-03T01:20:00;99547.72;;;22.59;88.27
7018;BME280;3549;42.162;24.726;2022-07-03T01:22:52;99542.59;;;22.46;90.03
7018;BME280;3549;42.162;24.726;2022-07-03T01:25:26;99269.47;;;20.91;89.34
7018;BME280;3549;42.162;24.726;2022-07-03T01:28:17;99552.03;;;22.66;89.27
7018;BME280;3549;42.162;24.726;2022-07-03T01:30:48;99462.69;;;22.11;88.99
7018;BME280;3549;42.162;24.726;2022-07-03T01:33:21;99057.69;;;19.88;88.20
7018;BME280;3549;42.162;24.726;2022-07-03T01:38:28;99461.81;;;22.21;88.66
7018;BME280;3549;42.162;24.726;2022-07-03T01:40:55;99550.34;;;22.41;90.41
7018;BME280;3549;42.162;24.726;2022-07-03T01:43:26;99560.66;;;22.32;91.65
7018;BME280;3549;42.162;24.726;2022-07-03T01:45:53;99558.97;;;22.22;92.38
7018;BME280;3549;42.162;24.726;2022-07-03T01:48:21;99442.06;;;21.62;92.38
7018;BME280;3549;42.162;24.726;2022-07-03T01:50:48;99181.88;;;19.88;92.27
7018;BME280;3549;42.162;24.726;2022-07-03T01:53:16;99418.88;;;21.41;91.74
7018;BME280;3549;42.162;24.726;2022-07-03T01:55:42;99236.84;;;20.37;91.62
7018;BME280;3549;42.162;24.726;2022-07-03T01:58:09;99540.88;;;21.86;94.39
7018;BME280;3549;42.162;24.726;2022-07-03T02:01:02;99305.50;;;20.63;93.32
7018;BME280;3549;42.162;24.726;2022-07-03T02:03:30;99448.06;;;21.36;93.93
7018;BME280;3549;42.162;24.726;2022-07-03T02:06:06;99544.34;;;22.04;94.83
7018;BME280;3549;42.162;24.726;2022-07-03T02:08:45;99550.38;;;21.97;94.65
7018;BME280;3549;42.162;24.726;2022-07-03T02:11:17;99551.16;;;21.61;97.20
7018;BME280;3549;42.162;24.726;2022-07-03T02:16:40;99357.78;;;20.58;95.91
7018;BME280;3549;42.162;24.726;2022-07-03T02:19:11;99553.81;;;21.92;95.02
7018;BME280;3549;42.162;24.726;2022-07-03T02:21:42;99560.66;;;21.90;94.53
7018;BME280;3549;42.162;24.726;2022-07-03T02:24:14;99558.91;;;21.64;95.63
7018;BME280;3549;42.162;24.726;2022-07-03T02:26:42;99441.78;;;20.58;97.17
7018;BME280;3549;42.162;24.726;2022-07-03T02:29:17;99561.34;;;21.17;98.92
7018;BME280;3549;42.162;24.726;2022-07-03T02:31:56;99260.38;;;19.38;99.93
7018;BME280;3549;42.162;24.726;2022-07-03T02:34:23;98994.31;;;17.92;98.39
7018;BME280;3549;42.162;24.726;2022-07-03T02:36:51;98935.81;;;17.43;99.81
7018;BME280;3549;42.162;24.726;2022-07-03T02:39:34;99093.47;;;18.08;100.00
7018;BME280;3549;42.162;24.726;2022-07-03T02:42:03;99185.16;;;18.40;100.00
7018;BME280;3549;42.162;24.726;2022-07-03T02:50:01;99563.69;;;20.78;100.00
7018;BME280;3549;42.162;24.726;2022-07-03T02:52:59;99444.03;;;20.03;100.00
7018;BME280;3549;42.162;24.726;2022-07-03T02:55:43;99246.31;;;18.89;100.00
7018;BME280;3549;42.162;24.726;2022-07-03T02:58:23;99565.47;;;20.87;100.00
7018;BME280;3549;42.162;24.726;2022-07-03T03:01:03;99510.28;;;20.41;100.00
7018;BME280;3549;42.162;24.726;2022-07-03T03:03:32;99151.78;;;18.35;100.00
7018;BME280;3549;42.162;24.726;2022-07-03T03:06:03;99479.25;;;20.17;100.00
7018;BME280;3549;42.162;24.726;2022-07-03T03:08:47;99501.75;;;20.40;100.00
7018;BME280;3549;42.162;24.726;2022-07-03T03:11:44;99564.59;;;20.86;100.00
7018;BME280;3549;42.162;24.726;2022-07-03T03:14:15;99208.66;;;18.85;100.00
7018;BME280;3549;42.162;24.726;2022-07-03T03:16:47;99492.28;;;20.35;100.00
7018;BME280;3549;42.162;24.726;2022-07-03T03:19:14;99202.50;;;18.62;100.00
7018;BME280;3549;42.162;24.726;2022-07-03T03:21:55;99341.03;;;19.66;100.00
7018;BME280;3549;42.162;24.726;2022-07-03T03:24:23;99200.94;;;18.82;100.00
7018;BME280;3549;42.162;24.726;2022-07-03T03:26:50;99319.53;;;19.52;100.00
7018;BME280;3549;42.162;24.726;2022-07-03T03:29:16;98915.78;;;16.99;100.00
7018;BME280;3549;42.162;24.726;2022-07-03T03:31:42;99346.88;;;19.47;100.00
7018;BME280;3549;42.162;24.726;2022-07-03T03:34:09;98873.78;;;16.76;100.00
7018;BME280;3549;42.162;24.726;2022-07-03T03:36:35;99125.38;;;18.42;100.00
7018;BME280;3549;42.162;24.726;2022-07-03T03:39:01;99540.56;;;20.86;100.00
7018;BME280;3549;42.162;24.726;2022-07-03T03:41:26;98968.88;;;17.23;100.00
7018;BME280;3549;42.162;24.726;2022-07-03T03:43:52;99351.25;;;19.55;100.00
7018;BME280;3549;42.162;24.726;2022-07-03T03:46:17;99134.91;;;18.55;100.00
7018;BME280;3549;42.162;24.726;2022-07-03T03:48:43;99141.63;;;18.43;100.00
7018;BME280;3549;42.162;24.726;2022-07-03T03:51:08;99327.13;;;19.39;100.00
7018;BME280;3549;42.162;24.726;2022-07-03T03:53:34;99457.13;;;20.32;100.00
7018;BME280;3549;42.162;24.726;2022-07-03T03:56:02;99122.75;;;18.33;100.00
7018;BME280;3549;42.162;24.726;2022-07-03T03:58:29;99343.78;;;19.99;100.00
7018;BME280;3549;42.162;24.726;2022-07-03T04:00:59;99270.66;;;19.38;100.00
7018;BME280;3549;42.162;24.726;2022-07-03T04:03:26;99043.81;;;17.90;100.00
7018;BME280;3549;42.162;24.726;2022-07-03T04:05:52;99364.22;;;19.78;100.00
7018;BME280;3549;42.162;24.726;2022-07-03T04:08:19;99528.63;;;20.98;100.00
7018;BME280;3549;42.162;24.726;2022-07-03T04:10:45;99348.97;;;20.08;100.00
7018;BME280;3549;42.162;24.726;2022-07-03T04:13:10;99159.06;;;18.83;100.00
7018;BME280;3549;42.162;24.726;2022-07-03T04:15:36;99005.44;;;17.97;100.00
7018;BME280;3549;42.162;24.726;2022-07-03T04:18:01;99170.53;;;19.39;100.00
7018;BME280;3549;42.162;24.726;2022-07-03T04:20:27;99288.25;;;20.30;100.00
7018;BME280;3549;42.162;24.726;2022-07-03T04:22:52;99234.22;;;20.24;98.13
7018;BME280;3549;42.162;24.726;2022-07-03T04:25:18;99576.13;;;22.40;96.77
7018;BME280;3549;42.162;24.726;2022-07-03T04:27:43;99310.66;;;20.78;97.13
7018;BME280;3549;42.162;24.726;2022-07-03T04:30:09;99163.91;;;20.02;96.23
7018;BME280;3549;42.162;24.726;2022-07-03T04:32:38;99540.06;;;21.97;97.06
7018;BME280;3549;42.162;24.726;2022-07-03T04:35:04;99253.16;;;20.48;96.18
7018;BME280;3549;42.162;24.726;2022-07-03T04:37:29;99333.81;;;20.84;96.24
7018;BME280;3549;42.162;24.726;2022-07-03T04:39:55;99473.91;;;21.95;95.14
7018;BME280;3549;42.162;24.726;2022-07-03T04:42:20;99572.72;;;22.24;97.29
7018;BME280;3549;42.162;24.726;2022-07-03T04:44:46;98993.91;;;18.60;97.31
7018;BME280;3549;42.162;24.726;2022-07-03T04:47:11;99528.03;;;22.02;96.39
7018;BME280;3549;42.162;24.726;2022-07-03T04:49:38;99251.44;;;20.50;95.56
7018;BME280;3549;42.162;24.726;2022-07-03T04:52:04;99538.28;;;22.48;93.33
7018;BME280;3549;42.162;24.726;2022-07-03T04:54:29;99318.44;;;21.20;92.89
7018;BME280;3549;42.162;24.726;2022-07-03T04:56:54;99331.28;;;21.18;92.50
7018;BME280;3549;42.162;24.726;2022-07-03T04:59:22;99299.50;;;20.97;92.24
7018;BME280;3549;42.162;24.726;2022-07-03T05:01:48;99465.19;;;22.33;90.80
7018;BME280;3549;42.162;24.726;2022-07-03T05:04:15;99092.81;;;20.12;89.99
7018;BME280;3549;42.162;24.726;2022-07-03T05:06:41;99308.94;;;21.61;88.70
7018;BME280;3549;42.162;24.726;2022-07-03T05:09:06;99295.19;;;21.59;89.02
7018;BME280;3549;42.162;24.726;2022-07-03T05:11:32;99352.53;;;22.43;85.72
7018;BME280;3549;42.162;24.726;2022-07-03T05:13:59;99121.97;;;20.85;85.69
7018;BME280;3549;42.162;24.726;2022-07-03T05:16:25;99211.13;;;21.33;86.03
7018;BME280;3549;42.162;24.726;2022-07-03T05:18:50;99596.41;;;23.71;84.93
7018;BME280;3549;42.162;24.726;2022-07-03T05:21:16;99474.97;;;23.61;83.20
7018;BME280;3549;42.162;24.726;2022-07-03T05:23:41;99184.34;;;21.74;82.46
7018;BME280;3549;42.162;24.726;2022-07-03T05:26:07;99518.00;;;23.66;81.17
7018;BME280;3549;42.162;24.726;2022-07-03T05:28:32;99273.59;;;22.10;81.47
7018;BME280;3549;42.162;24.726;2022-07-03T05:30:58;99155.16;;;21.71;78.94
7018;BME280;3549;42.162;24.726;2022-07-03T05:33:23;99475.06;;;23.47;78.80
7018;BME280;3549;42.162;24.726;2022-07-03T05:35:49;99499.63;;;24.02;77.54
7018;BME280;3549;42.162;24.726;2022-07-03T05:38:14;99200.63;;;21.95;76.96
7018;BME280;3549;42.162;24.726;2022-07-03T05:41:00;99092.66;;;21.27;77.40
7018;BME280;3549;42.162;24.726;2022-07-03T05:43:25;99061.81;;;21.19;77.20
7018;BME280;3549;42.162;24.726;2022-07-03T05:45:51;99583.16;;;24.18;78.61
7018;BME280;3549;42.162;24.726;2022-07-03T05:48:16;99206.63;;;21.97;77.54
7018;BME280;3549;42.162;24.726;2022-07-03T05:50:42;99502.19;;;24.04;77.11
7018;BME280;3549;42.162;24.726;2022-07-03T05:53:07;99460.00;;;23.97;76.01
7018;BME280;3549;42.162;24.726;2022-07-03T05:55:33;99117.81;;;22.39;73.55
7018;BME280;3549;42.162;24.726;2022-07-03T05:57:58;99391.69;;;24.20;72.07
7018;BME280;3549;42.162;24.726;2022-07-03T06:00:23;99341.13;;;23.88;72.54
7018;BME280;3549;42.162;24.726;2022-07-03T06:02:49;99575.50;;;25.66;71.72
7018;BME280;3549;42.162;24.726;2022-07-03T06:05:14;99478.84;;;24.94;69.09
7018;BME280;3549;42.162;24.726;2022-07-03T06:07:40;99507.13;;;25.10;69.22
7018;BME280;3549;42.162;24.726;2022-07-03T06:10:05;99468.66;;;24.80;69.97
7018;BME280;3549;42.162;24.726;2022-07-03T06:12:31;99353.59;;;24.32;69.19
7018;BME280;3549;42.162;24.726;2022-07-03T06:14:56;99302.31;;;24.58;66.25
7018;BME280;3549;42.162;24.726;2022-07-03T06:17:22;99319.16;;;24.91;65.61
7018;BME280;3549;42.162;24.726;2022-07-03T06:19:47;99243.63;;;24.60;64.01
7018;BME280;3549;42.162;24.726;2022-07-03T06:22:13;99184.88;;;24.04;65.05
7018;BME280;3549;42.162;24.726;2022-07-03T06:24:38;99335.25;;;25.08;64.60
7018;BME280;3549;42.162;24.726;2022-07-03T06:27:04;99156.41;;;24.07;64.41
7018;BME280;3549;42.162;24.726;2022-07-03T06:29:29;99270.28;;;24.65;63.93
7018;BME280;3549;42.162;24.726;2022-07-03T06:31:55;99186.44;;;24.18;64.93
7018;BME280;3549;42.162;24.726;2022-07-03T06:34:20;99414.84;;;25.60;63.72
7018;BME280;3549;42.162;24.726;2022-07-03T06:36:45;99457.28;;;26.52;61.51
7018;BME280;3549;42.162;24.726;2022-07-03T06:39:11;99316.81;;;26.23;59.49
7018;BME280;3549;42.162;24.726;2022-07-03T06:41:36;99282.50;;;25.63;59.33
7018;BME280;3549;42.162;24.726;2022-07-03T06:44:02;99477.22;;;26.50;60.70
7018;BME280;3549;42.162;24.726;2022-07-03T06:46:27;99211.06;;;25.47;58.98
7018;BME280;3549;42.162;24.726;2022-07-03T06:48:53;99446.13;;;27.28;57.98
7018;BME280;3549;42.162;24.726;2022-07-03T06:51:18;99264.22;;;26.52;56.20
7018;BME280;3549;42.162;24.726;2022-07-03T06:53:43;99487.34;;;28.17;55.98
7018;BME280;3549;42.162;24.726;2022-07-03T06:56:09;99495.63;;;27.97;57.33
7018;BME280;3549;42.162;24.726;2022-07-03T06:58:34;99494.56;;;27.32;57.33
7018;BME280;3549;42.162;24.726;2022-07-03T07:00:59;99493.44;;;27.45;58.48
7018;BME280;3549;42.162;24.726;2022-07-03T07:03:25;99452.59;;;27.84;55.17
7018;BME280;3549;42.162;24.726;2022-07-03T07:05:50;99169.63;;;26.26;55.21
7018;BME280;3549;42.162;24.726;2022-07-03T07:08:16;99179.56;;;25.68;57.68
7018;BME280;3549;42.162;24.726;2022-07-03T07:10:41;99171.38;;;25.86;56.42
7018;BME280;3549;42.162;24.726;2022-07-03T07:13:07;99480.56;;;27.76;56.22
7018;BME280;3549;42.162;24.726;2022-07-03T07:15:33;99446.72;;;27.76;54.83
7018;BME280;3549;42.162;24.726;2022-07-03T07:17:59;99277.56;;;26.75;55.25
7018;BME280;3549;42.162;24.726;2022-07-03T07:20:24;99461.81;;;28.30;54.36
7018;BME280;3549;42.162;24.726;2022-07-03T07:22:50;99132.84;;;26.45;53.60
7018;BME280;3549;42.162;24.726;2022-07-03T07:25:18;99197.78;;;26.80;53.53
7018;BME280;3549;42.162;24.726;2022-07-03T07:27:51;99060.53;;;26.29;52.13
7018;BME280;3549;42.162;24.726;2022-07-03T07:30:16;99438.31;;;28.65;52.39
7018;BME280;3549;42.162;24.726;2022-07-03T07:32:42;99228.16;;;27.45;52.47
7018;BME280;3549;42.162;24.726;2022-07-03T07:35:08;99042.50;;;26.57;51.45
7018;BME280;3549;42.162;24.726;2022-07-03T07:37:33;99163.06;;;27.78;49.57
7018;BME280;3549;42.162;24.726;2022-07-03T07:39:58;99533.25;;;30.26;49.11
7018;BME280;3549;42.162;24.726;2022-07-03T07:42:24;99403.06;;;29.37;49.14
7018;BME280;3549;42.162;24.726;2022-07-03T07:44:50;99191.75;;;28.33;49.49
7018;BME280;3549;42.162;24.726;2022-07-03T07:47:18;99266.66;;;28.53;49.23
7018;BME280;3549;42.162;24.726;2022-07-03T07:49:44;99572.13;;;30.36;48.67
7018;BME280;3549;42.162;24.726;2022-07-03T07:52:09;99213.53;;;29.11;47.08
7018;BME280;3549;42.162;24.726;2022-07-03T07:54:35;99284.38;;;29.74;44.98
7018;BME280;3549;42.162;24.726;2022-07-03T07:57:01;99224.84;;;29.36;44.03
7018;BME280;3549;42.162;24.726;2022-07-03T07:59:26;99412.69;;;30.38;43.77
7018;BME280;3549;42.162;24.726;2022-07-03T08:01:51;99450.81;;;30.67;44.42
7018;BME280;3549;42.162;24.726;2022-07-03T08:04:35;99383.59;;;30.47;43.68
7018;BME280;3549;42.162;24.726;2022-07-03T08:07:19;99542.06;;;31.87;43.02
7018;BME280;3549;42.162;24.726;2022-07-03T08:09:45;99526.84;;;31.09;44.14
7018;BME280;3549;42.162;24.726;2022-07-03T08:12:10;99435.13;;;30.19;45.14
7018;BME280;3549;42.162;24.726;2022-07-03T08:14:36;99351.56;;;29.43;46.56
7018;BME280;3549;42.162;24.726;2022-07-03T08:17:03;99541.38;;;31.16;44.58
7018;BME280;3549;42.162;24.726;2022-07-03T08:19:29;99422.78;;;30.47;44.39
7018;BME280;3549;42.162;24.726;2022-07-03T08:25:17;99028.59;;;28.06;44.81
7018;BME280;3549;42.162;24.726;2022-07-03T08:28:25;99541.41;;;30.91;44.84
7018;BME280;3549;42.162;24.726;2022-07-03T08:38:40;99205.31;;;30.17;43.50
7018;BME280;3549;42.162;24.726;2022-07-03T08:44:47;99440.28;;;32.00;40.28
7018;BME280;3549;42.162;24.726;2022-07-03T08:47:23;99243.84;;;30.99;40.65
7018;BME280;3549;42.162;24.726;2022-07-03T08:49:49;99367.00;;;31.58;39.20
7018;BME280;3549;42.162;24.726;2022-07-03T08:52:15;99313.19;;;31.71;39.20
7018;BME280;3549;42.162;24.726;2022-07-03T08:54:43;99080.84;;;30.58;38.86
7018;BME280;3549;42.162;24.726;2022-07-03T08:57:17;99356.88;;;32.48;38.00
7018;BME280;3549;42.162;24.726;2022-07-03T08:59:54;99214.09;;;31.62;37.83
7018;BME280;3549;42.162;24.726;2022-07-03T09:02:22;99235.84;;;32.22;37.03
7018;BME280;3549;42.162;24.726;2022-07-03T09:04:51;99236.16;;;32.51;37.22
7018;BME280;3549;42.162;24.726;2022-07-03T09:07:18;99313.19;;;33.03;35.89
7018;BME280;3549;42.162;24.726;2022-07-03T09:09:44;98935.50;;;30.74;34.00
7018;BME280;3549;42.162;24.726;2022-07-03T09:12:10;99039.78;;;31.58;34.34
7018;BME280;3549;42.162;24.726;2022-07-03T09:14:37;98986.50;;;30.64;34.67
7018;BME280;3549;42.162;24.726;2022-07-03T09:17:06;98969.63;;;29.91;33.85
7018;BME280;3549;42.162;24.726;2022-07-03T09:19:41;99529.56;;;33.52;34.84
7018;BME280;3549;42.162;24.726;2022-07-03T09:22:25;99261.34;;;31.98;34.84
7018;BME280;3549;42.162;24.726;2022-07-03T09:24:53;99460.34;;;33.17;35.28
7018;BME280;3549;42.162;24.726;2022-07-03T09:27:21;99492.03;;;33.13;35.34
7018;BME280;3549;42.162;24.726;2022-07-03T09:29:56;99002.97;;;30.26;35.44
7018;BME280;3549;42.162;24.726;2022-07-03T09:32:24;99196.13;;;31.73;36.41
7018;BME280;3549;42.162;24.726;2022-07-03T09:38:00;99180.75;;;32.04;34.18
7018;BME280;3549;42.162;24.726;2022-07-03T09:40:47;99525.16;;;33.53;34.58
7018;BME280;3549;42.162;24.726;2022-07-03T09:43:14;99520.66;;;33.73;34.52
7018;BME280;3549;42.162;24.726;2022-07-03T09:45:57;99520.63;;;33.92;33.91
7018;BME280;3549;42.162;24.726;2022-07-03T09:48:27;99515.31;;;33.58;34.47
7018;BME280;3549;42.162;24.726;2022-07-03T09:51:13;99519.19;;;33.49;34.57
7018;BME280;3549;42.162;24.726;2022-07-03T09:53:50;99196.16;;;31.92;34.17
7018;BME280;3549;42.162;24.726;2022-07-03T09:56:18;98999.03;;;30.76;33.85
7018;BME280;3549;42.162;24.726;2022-07-03T10:01:25;98972.56;;;30.45;34.52
7018;BME280;3549;42.162;24.726;2022-07-03T10:03:51;99183.34;;;31.67;35.12
7018;BME280;3549;42.162;24.726;2022-07-03T10:06:17;99188.41;;;31.70;35.52
7018;BME280;3549;42.162;24.726;2022-07-03T10:08:42;99286.25;;;32.27;34.54
7018;BME280;3549;42.162;24.726;2022-07-03T10:11:09;99502.22;;;33.20;34.72
7018;BME280;3549;42.162;24.726;2022-07-03T10:13:39;98951.31;;;29.70;35.12
7018;BME280;3549;42.162;24.726;2022-07-03T10:16:06;99095.88;;;31.14;35.27
7018;BME280;3549;42.162;24.726;2022-07-03T10:18:37;99248.06;;;32.40;34.43
7018;BME280;3549;42.162;24.726;2022-07-03T10:21:10;99325.78;;;32.78;33.80
7018;BME280;3549;42.162;24.726;2022-07-03T10:23:38;98930.91;;;30.61;34.37
7018;BME280;3549;42.162;24.726;2022-07-03T10:26:04;98987.28;;;31.05;34.30
7018;BME280;3549;42.162;24.726;2022-07-03T10:28:33;99210.03;;;32.31;34.42
7018;BME280;3549;42.162;24.726;2022-07-03T10:30:59;98917.75;;;30.44;34.34
7018;BME280;3549;42.162;24.726;2022-07-03T10:33:31;98922.50;;;30.54;34.74
7018;BME280;3549;42.162;24.726;2022-07-03T10:35:57;98941.16;;;30.65;34.79
7018;BME280;3549;42.162;24.726;2022-07-03T10:41:06;98983.50;;;31.12;34.40
7018;BME280;3549;42.162;24.726;2022-07-03T10:43:56;98950.59;;;30.29;34.81
7018;BME280;3549;42.162;24.726;2022-07-03T10:46:43;99263.28;;;32.50;34.96
7018;BME280;3549;42.162;24.726;2022-07-03T10:49:12;98965.88;;;30.97;34.32
7018;BME280;3549;42.162;24.726;2022-07-03T10:51:58;98962.69;;;31.09;34.68
7018;BME280;3549;42.162;24.726;2022-07-03T10:54:34;99269.91;;;33.12;34.37
7018;BME280;3549;42.162;24.726;2022-07-03T10:57:08;98954.88;;;31.26;34.58
7018;BME280;3549;42.162;24.726;2022-07-03T11:05:03;99457.88;;;34.03;34.30
7018;BME280;3549;42.162;24.726;2022-07-03T11:07:30;98947.13;;;30.87;35.25
7018;BME280;3549;42.162;24.726;2022-07-03T11:18:25;99439.66;;;34.50;34.55
7018;BME280;3549;42.162;24.726;2022-07-03T11:25:59;99428.56;;;33.76;34.91
7018;BME280;3549;42.162;24.726;2022-07-03T11:33:46;99405.78;;;33.77;35.23
7018;BME280;3549;42.162;24.726;2022-07-03T11:38:41;99254.25;;;33.62;35.45
7018;BME280;3549;42.162;24.726;2022-07-03T11:41:08;99125.19;;;33.02;33.87
7018;BME280;3549;42.162;24.726;2022-07-03T11:43:34;99101.50;;;33.69;33.38
7018;BME280;3549;42.162;24.726;2022-07-03T11:46:03;99433.34;;;36.51;32.24
7018;BME280;3549;42.162;24.726;2022-07-03T11:48:30;99155.06;;;35.33;29.99
7018;BME280;3549;42.162;24.726;2022-07-03T11:51:03;99425.31;;;37.22;29.93
7018;BME280;3549;42.162;24.726;2022-07-03T11:53:34;99322.56;;;36.78;30.18
7018;BME280;3549;42.162;24.726;2022-07-03T11:56:03;99235.88;;;36.85;29.84
7018;BME280;3549;42.162;24.726;2022-07-03T12:03:53;98958.75;;;34.44;30.72
7018;BME280;3549;42.162;24.726;2022-07-03T12:06:22;99137.91;;;36.77;29.40
7018;BME280;3549;42.162;24.726;2022-07-03T12:08:47;98985.00;;;35.84;29.32
7018;BME280;3549;42.162;24.726;2022-07-03T12:11:15;99415.63;;;38.39;28.93
7018;BME280;3549;42.162;24.726;2022-07-03T12:13:41;98891.50;;;35.11;28.87
7018;BME280;3549;42.162;24.726;2022-07-03T12:16:08;99414.91;;;37.72;29.34
7018;BME280;3549;42.162;24.726;2022-07-03T12:18:41;99005.09;;;35.17;29.94
7018;BME280;3549;42.162;24.726;2022-07-03T12:21:07;99238.59;;;35.45;31.74
7018;BME280;3549;42.162;24.726;2022-07-03T12:23:49;99165.59;;;34.89;31.61
7018;BME280;3549;42.162;24.726;2022-07-03T12:26:33;99269.69;;;35.82;31.02
7018;BME280;3549;42.162;24.726;2022-07-03T12:29:13;99079.53;;;35.47;30.36
7018;BME280;3549;42.162;24.726;2022-07-03T12:31:45;99407.38;;;38.44;29.32
7018;BME280;3549;42.162;24.726;2022-07-03T12:34:12;99381.59;;;39.07;28.13
7018;BME280;3549;42.162;24.726;2022-07-03T12:36:38;99013.69;;;37.41;27.69
7018;BME280;3549;42.162;24.726;2022-07-03T12:39:04;99384.84;;;39.58;27.77
7018;BME280;3549;42.162;24.726;2022-07-03T12:41:29;99192.59;;;38.13;28.13
7018;BME280;3549;42.162;24.726;2022-07-03T12:43:57;99388.31;;;38.51;29.15
7018;BME280;3549;42.162;24.726;2022-07-03T12:46:33;99398.63;;;38.92;29.22
7018;BME280;3549;42.162;24.726;2022-07-03T12:49:07;99287.22;;;38.46;27.74
7018;BME280;3549;42.162;24.726;2022-07-03T12:54:05;99350.34;;;39.82;26.73
7018;BME280;3549;42.162;24.726;2022-07-03T12:56:31;99329.63;;;40.20;26.73
7018;BME280;3549;42.162;24.726;2022-07-03T12:58:57;99301.88;;;40.02;27.12
7018;BME280;3549;42.162;24.726;2022-07-03T13:01:41;99386.16;;;41.62;25.71
7018;BME280;3549;42.162;24.726;2022-07-03T13:04:07;99352.78;;;40.74;26.28
7018;BME280;3549;42.162;24.726;2022-07-03T13:06:34;99290.75;;;41.06;25.99
7018;BME280;3549;42.162;24.726;2022-07-03T13:09:01;99386.47;;;41.80;25.50
7018;BME280;3549;42.162;24.726;2022-07-03T13:11:38;99371.84;;;40.23;27.01
7018;BME280;3549;42.162;24.726;2022-07-03T13:16:44;99334.25;;;41.26;26.11
7018;BME280;3549;42.162;24.726;2022-07-03T13:19:21;99366.31;;;41.13;25.87
7018;BME280;3549;42.162;24.726;2022-07-03T13:21:47;99372.06;;;42.12;25.25
7018;BME280;3549;42.162;24.726;2022-07-03T13:24:14;99113.63;;;40.54;24.78
7018;BME280;3549;42.162;24.726;2022-07-03T13:26:40;98944.94;;;39.88;25.16
7018;BME280;3549;42.162;24.726;2022-07-03T13:29:06;99168.16;;;40.79;25.07
7018;BME280;3549;42.162;24.726;2022-07-03T13:31:33;99022.53;;;38.70;25.82
7018;BME280;3549;42.162;24.726;2022-07-03T13:33:59;99021.72;;;39.14;25.91
7018;BME280;3549;42.162;24.726;2022-07-03T13:36:28;99057.69;;;40.03;24.89
7018;BME280;3549;42.162;24.726;2022-07-03T13:38:57;99081.34;;;40.80;24.34
7018;BME280;3549;42.162;24.726;2022-07-03T13:41:23;99019.38;;;40.90;23.98
7018;BME280;3549;42.162;24.726;2022-07-03T13:43:50;98897.69;;;39.19;24.58
7018;BME280;3549;42.162;24.726;2022-07-03T13:46:16;98861.50;;;39.72;24.26
7018;BME280;3549;42.162;24.726;2022-07-03T13:48:45;98999.06;;;39.32;24.62
7018;BME280;3549;42.162;24.726;2022-07-03T13:51:12;99157.00;;;40.64;24.84
7018;BME280;3549;42.162;24.726;2022-07-03T13:53:38;99038.41;;;40.01;24.77
7018;BME280;3549;42.162;24.726;2022-07-03T13:56:06;99056.88;;;40.97;23.80
7018;BME280;3549;42.162;24.726;2022-07-03T13:58:32;99006.34;;;41.17;23.08
7018;BME280;3549;42.162;24.726;2022-07-03T14:00:58;99356.13;;;43.30;23.25
7018;BME280;3549;42.162;24.726;2022-07-03T14:03:24;99086.72;;;41.90;23.23
7018;BME280;3549;42.162;24.726;2022-07-03T14:05:50;98901.59;;;38.70;25.05
7018;BME280;3549;42.162;24.726;2022-07-03T14:08:17;99160.41;;;39.02;26.00
7018;BME280;3549;42.162;24.726;2022-07-03T14:10:43;98862.59;;;37.60;25.49
7018;BME280;3549;42.162;24.726;2022-07-03T14:13:09;99286.09;;;39.32;26.92
7018;BME280;3549;42.162;24.726;2022-07-03T14:15:34;99201.50;;;41.04;24.21
7018;BME280;3549;42.162;24.726;2022-07-03T14:17:59;99188.16;;;42.06;23.26
7018;BME280;3549;42.162;24.726;2022-07-03T14:20:27;99270.03;;;43.01;22.87
7018;BME280;3549;42.162;24.726;2022-07-03T14:22:52;99276.03;;;43.88;22.46
7018;BME280;3549;42.162;24.726;2022-07-03T14:25:18;99189.06;;;43.12;22.32
7018;BME280;3549;42.162;24.726;2022-07-03T14:27:43;99192.25;;;43.34;21.89
7018;BME280;3549;42.162;24.726;2022-07-03T14:30:27;99169.84;;;42.22;22.88
7018;BME280;3549;42.162;24.726;2022-07-03T14:33:11;99199.28;;;41.81;23.51
7018;BME280;3549;42.162;24.726;2022-07-03T14:35:36;99197.16;;;39.17;26.08